Time;durP1;ratioP1;P1;durP2;ratioP2;P2;SDS_P1;SDS_P2;PMS_P1;PMS_P2;Temp;Humidity;BMP_temperature;BMP_pressure;BME280_temperature;BME280_humidity;BME280_pressure;Samples;Min_cycle;Max_cycle;Signal;HPM_P1;HPM_P2
2023/06/24 00:02:01;;;;;;;7.50;6.90;;;;;;;25.17;70.48;99448.00;5091735;28;20241;-75
2023/06/24 00:04:28;;;;;;;10.97;7.17;;;;;;;24.80;72.06;99454.97;5091808;28;20291;-76
2023/06/24 00:06:58;;;;;;;7.63;7.03;;;;;;;24.89;71.73;99453.25;5071544;28;20188;-76
2023/06/24 00:09:25;;;;;;;7.33;6.53;;;;;;;24.84;71.64;99439.72;5082497;28;20196;-76
2023/06/24 00:11:52;;;;;;;7.60;7.10;;;;;;;24.69;71.28;99442.63;5092117;28;20187;-77
2023/06/24 00:14:21;;;;;;;7.30;6.80;;;;;;;24.61;71.76;99443.25;5091648;28;20199;-76
2023/06/24 00:16:48;;;;;;;8.27;7.57;;;;;;;24.56;71.47;99437.84;5091676;28;20256;-77
2023/06/24 00:19:17;;;;;;;7.87;7.27;;;;;;;24.41;71.77;99438.00;5091655;28;20201;-75
2023/06/24 00:21:44;;;;;;;7.63;6.87;;;;;;;24.37;71.88;99434.22;5093570;28;20194;-73
2023/06/24 00:24:11;;;;;;;7.43;6.93;;;;;;;24.47;71.77;99422.47;5095400;28;20728;-73
2023/06/24 00:26:37;;;;;;;6.70;6.30;;;;;;;24.38;72.00;99427.69;5095684;28;20286;-73
2023/06/24 00:29:04;;;;;;;7.27;6.80;;;;;;;24.08;72.75;99425.28;5095407;28;20255;-73
2023/06/24 00:31:32;;;;;;;6.53;6.20;;;;;;;23.95;73.29;99417.00;5094625;28;20267;-73
2023/06/24 00:33:59;;;;;;;7.83;7.13;;;;;;;23.94;73.24;99421.59;5095716;28;20194;-73
2023/06/24 00:36:26;;;;;;;7.53;6.73;;;;;;;23.59;74.99;99424.56;5094995;28;20202;-73
2023/06/24 00:38:53;;;;;;;7.57;7.07;;;;;;;23.41;76.08;99422.53;5095112;28;20274;-73
2023/06/24 00:41:20;;;;;;;8.13;7.40;;;;;;;23.47;75.97;99415.97;5095069;28;20623;-74
2023/06/24 00:43:47;;;;;;;7.90;7.30;;;;;;;23.54;75.97;99419.19;5095397;28;20282;-74
2023/06/24 00:46:15;;;;;;;7.73;7.17;;;;;;;23.68;75.26;99425.56;5094936;28;20255;-74
2023/06/24 00:48:43;;;;;;;9.13;7.60;;;;;;;23.83;74.77;99421.94;5095580;28;20646;-74
2023/06/24 00:51:10;;;;;;;7.47;6.83;;;;;;;23.84;74.34;99424.38;5094863;28;20677;-73
2023/06/24 00:53:36;;;;;;;11.33;7.53;;;;;;;23.54;75.56;99413.75;5094171;28;20243;-75
2023/06/24 00:56:04;;;;;;;7.43;6.83;;;;;;;23.56;75.45;99421.63;5094782;28;20658;-74
2023/06/24 00:58:33;;;;;;;8.67;8.07;;;;;;;23.58;75.49;99414.00;5095123;28;20194;-73
2023/06/24 01:01:01;;;;;;;8.07;7.27;;;;;;;23.44;75.24;99408.38;5095184;28;20190;-74
2023/06/24 01:03:29;;;;;;;8.10;7.67;;;;;;;23.49;75.18;99405.63;5095015;28;20229;-75
2023/06/24 01:05:57;;;;;;;8.80;7.80;;;;;;;23.25;76.26;99404.72;5094505;28;20681;-74
2023/06/24 01:08:24;;;;;;;7.90;7.20;;;;;;;23.38;74.93;99409.53;5095139;28;20206;-74
2023/06/24 01:10:51;;;;;;;7.93;7.30;;;;;;;23.45;74.08;99412.75;5094893;28;20195;-74
2023/06/24 01:13:18;;;;;;;7.97;7.33;;;;;;;23.31;74.67;99414.44;5094997;28;20284;-75
2023/06/24 01:15:46;;;;;;;7.60;7.10;;;;;;;23.23;75.13;99417.75;5094467;28;20208;-76
2023/06/24 01:18:19;;;;;;;7.73;6.60;;;;;;;22.97;74.09;99407.28;5094877;28;20204;-75
2023/06/24 01:20:52;;;;;;;8.10;7.50;;;;;;;22.87;74.06;99405.41;5092202;28;20715;-75
2023/06/24 01:23:49;;;;;;;9.03;6.97;;;;;;;23.03;72.90;99417.03;5094338;28;20235;-75
2023/06/24 01:26:24;;;;;;;6.93;6.53;;;;;;;23.15;71.80;99421.00;5094280;28;20645;-76
2023/06/24 01:29:24;;;;;;;9.17;8.27;;;;;;;23.05;71.20;99391.25;5094329;28;20188;-75
2023/06/24 01:31:59;;;;;;;7.90;7.33;;;;;;;23.13;70.95;99412.34;5093437;28;20615;-74
2023/06/24 01:34:30;;;;;;;9.20;6.73;;;;;;;23.12;71.25;99409.91;5094549;28;20201;-74
2023/06/24 01:37:09;;;;;;;8.17;7.17;;;;;;;23.10;70.46;99402.06;5094180;28;20667;-74
2023/06/24 01:39:40;;;;;;;7.80;7.10;;;;;;;23.23;70.18;99420.44;5094137;28;20622;-74
2023/06/24 01:42:10;;;;;;;8.00;7.17;;;;;;;23.24;69.83;99424.78;5094109;28;20571;-74
2023/06/24 01:44:43;;;;;;;7.97;7.37;;;;;;;23.35;69.88;99422.81;5092931;28;20233;-74
2023/06/24 01:47:12;;;;;;;6.93;6.37;;;;;;;23.29;69.54;99432.91;5094339;28;20226;-74
2023/06/24 01:49:42;;;;;;;7.13;6.40;;;;;;;22.62;71.77;99421.75;5094489;28;20250;-74
2023/06/24 01:52:11;;;;;;;6.77;6.37;;;;;;;22.81;71.34;99414.66;5093788;28;20726;-75
2023/06/24 01:54:40;;;;;;;6.63;6.30;;;;;;;22.62;71.72;99416.34;5094116;28;20204;-75
2023/06/24 01:57:09;;;;;;;7.27;6.60;;;;;;;22.71;71.57;99425.53;5093933;28;20197;-76
2023/06/24 01:59:40;;;;;;;7.57;7.03;;;;;;;22.47;72.74;99421.81;5094114;28;20648;-75
2023/06/24 02:02:08;;;;;;;8.20;6.60;;;;;;;22.50;72.59;99425.88;5092731;28;20620;-73
2023/06/24 02:04:36;;;;;;;7.27;6.73;;;;;;;22.63;71.68;99436.13;5084536;28;20216;-74
2023/06/24 02:07:04;;;;;;;7.90;7.40;;;;;;;22.46;72.22;99422.06;5073674;28;20256;-75
2023/06/24 02:09:33;;;;;;;6.70;6.40;;;;;;;22.43;72.64;99436.13;5073275;28;20735;-75
2023/06/24 02:12:03;;;;;;;7.57;6.80;;;;;;;22.25;73.02;99429.41;5073133;28;20550;-75
2023/06/24 02:14:30;;;;;;;7.63;7.10;;;;;;;22.38;72.85;99436.16;5073166;28;20258;-73
2023/06/24 02:17:00;;;;;;;7.40;6.57;;;;;;;22.39;71.94;99430.47;5073073;28;20598;-73
2023/06/24 02:19:30;;;;;;;6.80;6.40;;;;;;;22.59;71.50;99441.28;5073045;28;20246;-72
2023/06/24 02:21:59;;;;;;;7.47;6.77;;;;;;;22.53;71.60;99442.38;5075408;28;20259;-73
2023/06/24 02:24:27;;;;;;;6.73;6.03;;;;;;;22.63;71.21;99455.91;5093494;28;20651;-74
2023/06/24 02:26:55;;;;;;;7.60;6.73;;;;;;;22.23;72.09;99455.94;5093426;28;20196;-73
2023/06/24 02:29:23;;;;;;;7.47;6.80;;;;;;;22.28;71.93;99453.22;5093567;28;20193;-73
2023/06/24 02:31:50;;;;;;;9.30;6.57;;;;;;;22.52;70.91;99475.13;5092750;28;20227;-74
2023/06/24 02:34:17;;;;;;;7.80;7.10;;;;;;;22.51;70.60;99468.09;5093010;28;20626;-75
2023/06/24 02:36:43;;;;;;;7.37;6.77;;;;;;;22.59;70.11;99484.63;5093226;28;20221;-75
2023/06/24 02:39:13;;;;;;;6.97;6.27;;;;;;;22.42;70.43;99475.94;5075256;28;20197;-73
2023/06/24 02:41:39;;;;;;;8.27;6.73;;;;;;;22.42;70.45;99470.50;5093041;28;20225;-74
2023/06/24 02:44:06;;;;;;;7.03;6.53;;;;;;;22.50;70.04;99472.69;5091906;28;20281;-75
2023/06/24 02:46:36;;;;;;;6.73;6.20;;;;;;;22.61;69.66;99474.31;5092699;28;20239;-74
2023/06/24 02:49:03;;;;;;;7.50;6.60;;;;;;;22.34;70.56;99490.00;5092011;28;20192;-72
2023/06/24 02:51:31;;;;;;;7.10;6.60;;;;;;;22.35;70.49;99483.53;5092903;28;20192;-72
2023/06/24 02:53:59;;;;;;;7.70;7.00;;;;;;;22.39;70.36;99487.31;5092647;28;20552;-72
2023/06/24 02:56:28;;;;;;;6.93;6.33;;;;;;;22.58;70.34;99491.09;5092563;28;20231;-72
2023/06/24 02:58:55;;;;;;;6.90;6.40;;;;;;;22.64;69.75;99500.84;5083330;28;20613;-72
2023/06/24 03:01:25;;;;;;;7.60;6.93;;;;;;;22.74;68.92;99495.41;5089573;28;20667;-73
2023/06/24 03:03:54;;;;;;;7.80;7.20;;;;;;;22.74;68.28;99500.81;5092374;28;20217;-73
2023/06/24 03:06:21;;;;;;;6.80;6.30;;;;;;;22.77;68.15;99497.56;5082044;28;20716;-73
2023/06/24 03:08:49;;;;;;;5.97;5.47;;;;;;;22.82;68.00;99488.63;5082056;28;20197;-73
2023/06/24 03:11:16;;;;;;;7.77;6.00;;;;;;;22.86;67.93;99493.19;5091966;28;20197;-73
2023/06/24 03:13:44;;;;;;;6.83;6.43;;;;;;;23.00;67.76;99486.13;5089089;28;20250;-73
2023/06/24 03:16:12;;;;;;;6.57;6.07;;;;;;;23.15;66.95;99496.88;5086588;28;20603;-73
2023/06/24 03:18:41;;;;;;;6.70;6.10;;;;;;;23.40;65.91;99496.00;5082587;28;20193;-73
2023/06/24 03:21:08;;;;;;;9.57;6.80;;;;;;;23.49;65.30;99497.84;5081780;28;20197;-74
2023/06/24 03:23:34;;;;;;;6.87;6.27;;;;;;;23.35;65.32;99491.41;5091999;28;20215;-74
2023/06/24 03:26:02;;;;;;;6.80;6.10;;;;;;;23.42;65.48;99491.94;5091703;28;20762;-74
2023/06/24 03:28:30;;;;;;;7.23;6.57;;;;;;;23.52;65.41;99499.19;5091966;28;20190;-74
2023/06/24 03:30:58;;;;;;;7.50;6.53;;;;;;;23.42;65.54;99502.78;5091427;28;20212;-74
2023/06/24 03:33:26;;;;;;;6.57;6.07;;;;;;;23.47;65.16;99510.88;5089362;28;20197;-74
2023/06/24 03:35:54;;;;;;;6.67;6.27;;;;;;;23.48;64.97;99514.41;5091927;28;20198;-74
2023/06/24 03:38:21;;;;;;;7.67;7.00;;;;;;;23.48;64.87;99506.28;5080664;28;20198;-74
2023/06/24 03:40:47;;;;;;;7.63;6.67;;;;;;;23.41;64.97;99503.88;5082290;28;20233;-73
2023/06/24 03:43:14;;;;;;;7.03;6.53;;;;;;;23.31;65.37;99505.78;5085150;28;20666;-74
2023/06/24 03:45:41;;;;;;;6.43;5.93;;;;;;;23.67;64.97;99499.91;5091371;28;20220;-73
2023/06/24 03:48:09;;;;;;;7.03;6.53;;;;;;;23.91;63.54;99500.06;5091371;28;20711;-73
2023/06/24 03:50:36;;;;;;;6.33;5.93;;;;;;;24.04;63.30;99500.22;5080556;28;20255;-73
2023/06/24 03:53:03;;;;;;;6.67;6.17;;;;;;;23.92;62.93;99497.06;5088950;28;20607;-73
2023/06/24 03:55:30;;;;;;;8.40;7.63;;;;;;;23.71;63.65;99500.16;5092377;28;20193;-73
2023/06/24 03:57:56;;;;;;;7.50;6.63;;;;;;;23.28;65.34;99501.75;5095966;28;20202;-73
2023/06/24 04:00:23;;;;;;;7.30;6.63;;;;;;;23.25;65.92;99502.31;5095547;28;20754;-73
2023/06/24 04:02:52;;;;;;;6.33;5.93;;;;;;;23.25;65.96;99496.06;5095853;28;20257;-73
2023/06/24 04:05:21;;;;;;;7.20;6.60;;;;;;;24.07;62.09;99515.97;5085114;28;20222;-73
2023/06/24 04:07:47;;;;;;;7.43;6.63;;;;;;;24.79;59.45;99515.84;5095596;28;20197;-73
2023/06/24 04:10:14;;;;;;;6.83;6.27;;;;;;;25.33;57.52;99517.44;5084548;28;20194;-73
2023/06/24 04:12:41;;;;;;;6.83;6.27;;;;;;;26.39;55.31;99512.91;5086531;28;20199;-73
2023/06/24 04:15:09;;;;;;;7.93;6.70;;;;;;;27.44;51.67;99526.50;5095107;28;20244;-73
2023/06/24 04:17:35;;;;;;;5.90;5.53;;;;;;;28.23;48.67;99528.50;5085334;28;20187;-73
2023/06/24 04:20:04;;;;;;;6.93;6.33;;;;;;;28.79;46.58;99526.81;5086223;28;20196;-77
2023/06/24 04:22:32;;;;;;;6.63;6.20;;;;;;;29.73;44.10;99529.09;5095016;28;20627;-75
2023/06/24 04:24:58;;;;;;;6.27;5.93;;;;;;;30.48;41.14;99526.69;5084843;28;20264;-71
2023/06/24 04:27:25;;;;;;;6.37;5.77;;;;;;;30.75;40.27;99532.66;5085616;28;20191;-75
2023/06/24 04:29:52;;;;;;;6.37;5.83;;;;;;;31.13;39.74;99541.69;5085047;28;20188;-72
2023/06/24 04:32:19;;;;;;;6.20;5.90;;;;;;;31.35;38.31;99546.16;5095240;28;20223;-72
2023/06/24 04:34:45;;;;;;;6.23;5.63;;;;;;;31.76;37.04;99538.81;5094860;28;20248;-72
2023/06/24 04:37:12;;;;;;;6.73;6.07;;;;;;;31.98;36.76;99537.69;5095176;28;20662;-76
2023/06/24 04:39:40;;;;;;;6.80;6.27;;;;;;;32.28;36.04;99531.75;5083886;28;20195;-72
2023/06/24 04:42:07;;;;;;;6.67;6.17;;;;;;;32.75;34.86;99552.34;5092445;28;20191;-72
2023/06/24 04:44:34;;;;;;;6.47;5.80;;;;;;;33.47;33.97;99553.63;5094911;28;20659;-72
2023/06/24 04:47:01;;;;;;;5.83;5.47;;;;;;;34.01;33.15;99563.22;5083386;28;20200;-73
2023/06/24 04:49:28;;;;;;;7.83;5.70;;;;;;;34.36;32.57;99575.31;5094839;28;20620;-73
2023/06/24 04:51:54;;;;;;;6.40;5.78;;;;;;;35.02;31.48;99573.66;5094861;28;20196;-73
2023/06/24 04:54:21;;;;;;;6.00;5.60;;;;;;;35.35;29.89;99585.19;5093445;28;20736;-73
2023/06/24 04:56:50;;;;;;;7.47;5.30;;;;;;;35.81;31.06;99576.81;5095508;28;20195;-72
2023/06/24 04:59:17;;;;;;;6.60;5.40;;;;;;;35.87;30.26;99572.63;5095152;28;20223;-71
2023/06/24 05:01:44;;;;;;;5.60;5.20;;;;;;;36.36;29.66;99581.22;5095322;28;20252;-75
2023/06/24 05:04:10;;;;;;;6.47;5.60;;;;;;;36.57;27.97;99582.47;5094817;28;20219;-76
2023/06/24 05:06:37;;;;;;;6.03;4.80;;;;;;;36.21;31.24;99582.84;5076400;28;20663;-67
2023/06/24 05:09:04;;;;;;;6.13;5.47;;;;;;;36.89;28.42;99583.09;5074292;28;20188;-66
2023/06/24 05:11:30;;;;;;;7.05;5.40;;;;;;;36.98;27.75;99578.09;5082626;28;20191;-68
2023/06/24 05:13:59;;;;;;;5.72;5.32;;;;;;;37.04;26.98;99579.41;5094742;28;20191;-68
2023/06/24 05:16:25;;;;;;;6.50;5.93;;;;;;;37.02;27.99;99584.50;5094653;28;20281;-67
2023/06/24 05:18:52;;;;;;;16.42;6.60;;;;;;;37.04;27.92;99582.19;5093889;28;20191;-67
2023/06/24 05:21:19;;;;;;;10.75;5.70;;;;;;;36.60;28.45;99581.72;5094668;28;20240;-69
2023/06/24 05:23:45;;;;;;;7.00;6.40;;;;;;;36.07;29.39;99577.03;5094009;28;20575;-68
2023/06/24 05:26:12;;;;;;;7.07;6.32;;;;;;;35.92;30.71;99583.41;5094055;28;20227;-67
2023/06/24 05:28:39;;;;;;;8.65;5.85;;;;;;;35.89;31.10;99578.59;5094365;28;20249;-69
2023/06/24 05:31:07;;;;;;;7.22;6.72;;;;;;;36.03;30.49;99584.44;5094335;28;20227;-69
2023/06/24 05:33:34;;;;;;;12.48;6.07;;;;;;;35.80;31.61;99579.97;5087953;28;20206;-71
2023/06/24 05:36:00;;;;;;;6.45;5.82;;;;;;;35.46;32.27;99580.69;5074528;28;20196;-70
2023/06/24 05:38:27;;;;;;;9.40;6.78;;;;;;;35.18;32.65;99579.97;5073602;28;20656;-69
2023/06/24 05:40:54;;;;;;;97.68;13.43;;;;;;;35.08;33.07;99591.56;5078537;28;20187;-69
2023/06/24 05:43:20;;;;;;;7.00;6.53;;;;;;;35.28;32.88;99587.75;5093994;28;20195;-69
2023/06/24 05:45:47;;;;;;;10.95;6.90;;;;;;;35.08;32.66;99578.56;5093964;28;20226;-70
2023/06/24 05:48:15;;;;;;;6.47;5.93;;;;;;;34.80;34.54;99575.03;5086757;28;20663;-71
2023/06/24 05:50:42;;;;;;;9.60;6.38;;;;;;;34.62;34.45;99572.94;5093431;28;20191;-71
2023/06/24 05:53:09;;;;;;;8.32;7.28;;;;;;;34.67;33.76;99567.13;5093811;28;20187;-71
2023/06/24 05:55:35;;;;;;;12.77;6.97;;;;;;;34.44;35.26;99566.09;5093414;28;20263;-67
2023/06/24 05:58:02;;;;;;;17.98;8.93;;;;;;;34.72;34.44;99575.97;5093883;28;20675;-66
2023/06/24 06:00:29;;;;;;;8.32;7.45;;;;;;;34.53;35.23;99581.34;5093621;28;20252;-68
2023/06/24 06:02:55;;;;;;;11.35;9.90;;;;;;;34.64;36.10;99578.88;5093353;28;20252;-68
2023/06/24 06:05:24;;;;;;;11.02;9.98;;;;;;;34.50;37.11;99570.22;5091903;28;20237;-68
2023/06/24 06:07:51;;;;;;;16.55;11.82;;;;;;;34.25;39.10;99568.69;5090600;28;20191;-68
2023/06/24 06:10:18;;;;;;;13.15;11.02;;;;;;;34.08;39.28;99574.47;5090814;28;20198;-67
2023/06/24 06:12:45;;;;;;;13.45;11.50;;;;;;;33.99;40.16;99571.03;5093332;28;20191;-67
2023/06/24 06:15:12;;;;;;;12.13;11.02;;;;;;;33.86;40.00;99562.00;5092751;28;20252;-67
2023/06/24 06:17:38;;;;;;;11.00;10.20;;;;;;;34.15;38.72;99558.13;5092760;28;20252;-67
2023/06/24 06:20:06;;;;;;;11.38;10.60;;;;;;;33.43;40.66;99556.25;5092445;28;20191;-68
2023/06/24 06:22:37;;;;;;;11.88;10.63;;;;;;;33.59;39.98;99550.88;5091599;28;20682;-67
2023/06/24 06:25:05;;;;;;;13.20;11.73;;;;;;;33.77;40.43;99550.28;5091042;28;20207;-68
2023/06/24 06:27:31;;;;;;;11.40;10.32;;;;;;;33.66;40.04;99540.88;5091713;28;20191;-67
2023/06/24 06:29:58;;;;;;;11.38;10.38;;;;;;;33.91;40.02;99536.13;5092622;28;20192;-67
2023/06/24 06:32:25;;;;;;;10.63;9.70;;;;;;;34.26;39.33;99537.19;5092844;28;20282;-68
2023/06/24 06:34:51;;;;;;;10.70;9.80;;;;;;;34.57;37.79;99543.59;5092252;28;20760;-68
2023/06/24 06:37:18;;;;;;;9.93;9.07;;;;;;;34.21;39.22;99532.69;5093010;28;20188;-67
2023/06/24 06:39:46;;;;;;;9.90;8.98;;;;;;;34.29;38.24;99539.25;5092561;28;20257;-67
2023/06/24 06:42:14;;;;;;;10.43;9.52;;;;;;;34.58;37.95;99538.91;5092875;28;20199;-68
2023/06/24 06:44:41;;;;;;;9.60;9.00;;;;;;;34.65;37.52;99537.13;5092470;28;20691;-68
2023/06/24 06:47:08;;;;;;;9.57;8.38;;;;;;;34.49;37.09;99541.03;5092219;28;20269;-68
2023/06/24 06:49:35;;;;;;;10.10;9.10;;;;;;;34.45;37.30;99540.13;5092385;28;20631;-68
2023/06/24 06:52:01;;;;;;;14.25;9.52;;;;;;;34.41;37.96;99542.75;5092435;28;20213;-68
2023/06/24 06:54:28;;;;;;;11.85;10.77;;;;;;;34.57;37.71;99537.31;5092320;28;20756;-68
2023/06/24 06:56:56;;;;;;;10.25;9.40;;;;;;;34.69;37.97;99528.94;5092428;28;20207;-68
2023/06/24 06:59:23;;;;;;;10.13;9.32;;;;;;;34.85;37.70;99521.50;5092678;28;20302;-67
2023/06/24 07:01:49;;;;;;;10.52;9.63;;;;;;;35.12;36.80;99526.16;5092682;28;20191;-68
2023/06/24 07:04:16;;;;;;;8.95;8.43;;;;;;;35.20;36.68;99531.50;5092365;28;20257;-68
2023/06/24 07:06:43;;;;;;;10.15;9.13;;;;;;;35.17;36.39;99523.09;5092367;28;20215;-68
2023/06/24 07:09:10;;;;;;;10.63;9.73;;;;;;;34.88;36.20;99521.63;5091118;28;20199;-68
2023/06/24 07:11:36;;;;;;;10.90;10.00;;;;;;;34.86;36.63;99526.66;5092400;28;20191;-68
2023/06/24 07:14:05;;;;;;;10.55;9.65;;;;;;;34.52;36.69;99520.97;5092404;28;20194;-68
2023/06/24 07:16:31;;;;;;;17.38;9.90;;;;;;;34.19;37.34;99521.22;5092182;28;20268;-67
2023/06/24 07:18:58;;;;;;;32.92;11.00;;;;;;;34.49;37.30;99516.19;5092361;28;20191;-67
2023/06/24 07:21:25;;;;;;;10.00;9.30;;;;;;;34.80;36.09;99528.09;5091852;28;20195;-68
2023/06/24 07:23:51;;;;;;;9.80;8.88;;;;;;;35.11;35.81;99524.56;5092249;28;20192;-67
2023/06/24 07:26:18;;;;;;;12.52;9.10;;;;;;;35.33;35.36;99518.41;5091732;28;20702;-68
2023/06/24 07:28:45;;;;;;;10.43;9.57;;;;;;;35.43;34.47;99520.63;5092287;28;20203;-68
2023/06/24 07:31:13;;;;;;;9.70;8.90;;;;;;;35.39;34.32;99522.50;5091456;28;20223;-68
2023/06/24 07:33:39;;;;;;;9.88;9.18;;;;;;;35.22;34.43;99531.94;5091248;28;20271;-67
2023/06/24 07:36:06;;;;;;;10.48;8.10;;;;;;;35.26;34.43;99529.25;5091212;28;20253;-68
2023/06/24 07:38:33;;;;;;;9.55;8.85;;;;;;;35.40;34.16;99522.13;5091589;28;20662;-68
2023/06/24 07:41:00;;;;;;;9.82;9.00;;;;;;;35.65;33.75;99520.75;5091893;28;20195;-68
2023/06/24 07:43:26;;;;;;;11.82;8.80;;;;;;;35.67;33.31;99514.84;5091941;28;20195;-68
2023/06/24 07:45:53;;;;;;;18.13;9.23;;;;;;;35.71;33.63;99516.53;5091914;28;20226;-68
2023/06/24 07:48:21;;;;;;;14.88;8.95;;;;;;;35.76;33.62;99518.25;5091615;28;20195;-67
2023/06/24 07:50:49;;;;;;;11.95;7.70;;;;;;;35.79;32.06;99523.03;5091490;28;20252;-67
2023/06/24 07:53:15;;;;;;;8.27;7.40;;;;;;;35.82;31.51;99527.88;5091751;28;20286;-68
2023/06/24 07:55:42;;;;;;;8.50;7.40;;;;;;;35.14;32.89;99534.88;5091817;28;20203;-67
2023/06/24 07:58:09;;;;;;;10.70;7.95;;;;;;;35.25;32.77;99524.88;5091468;28;20203;-68
2023/06/24 08:00:36;;;;;;;8.40;7.90;;;;;;;35.31;32.86;99523.50;5091420;28;20291;-68
2023/06/24 08:03:03;;;;;;;13.90;7.57;;;;;;;35.34;32.71;99528.28;5090244;28;20191;-68
2023/06/24 08:05:31;;;;;;;8.10;7.22;;;;;;;35.46;32.37;99526.22;5091457;28;20219;-67
2023/06/24 08:07:57;;;;;;;10.40;8.60;;;;;;;35.59;31.99;99524.94;5091906;28;20195;-67
2023/06/24 08:10:24;;;;;;;11.75;8.05;;;;;;;35.69;32.30;99534.66;5091688;28;20192;-67
2023/06/24 08:12:51;;;;;;;8.70;7.68;;;;;;;35.81;32.29;99532.59;5091474;28;20196;-66
2023/06/24 08:15:17;;;;;;;8.98;8.18;;;;;;;36.13;31.63;99538.81;5091375;28;20199;-67
2023/06/24 08:17:44;;;;;;;8.18;7.45;;;;;;;36.15;32.10;99526.22;5091960;28;20195;-67
2023/06/24 08:20:12;;;;;;;8.63;7.90;;;;;;;36.05;31.78;99521.25;5091298;28;20663;-68
2023/06/24 08:22:40;;;;;;;8.05;7.45;;;;;;;36.20;31.15;99534.22;5090998;28;20249;-67
2023/06/24 08:25:08;;;;;;;8.65;7.45;;;;;;;36.38;30.86;99537.38;5090662;28;20698;-69
2023/06/24 08:27:34;;;;;;;8.55;7.72;;;;;;;36.07;30.76;99535.53;5091675;28;20195;-66
2023/06/24 08:30:01;;;;;;;10.10;8.55;;;;;;;36.18;30.85;99530.22;5091328;28;20567;-67
2023/06/24 08:32:28;;;;;;;8.45;7.13;;;;;;;36.35;30.29;99529.81;5091782;28;20227;-67
2023/06/24 08:34:55;;;;;;;8.25;7.50;;;;;;;36.52;30.27;99518.28;5091601;28;20260;-67
2023/06/24 08:37:22;;;;;;;7.70;7.10;;;;;;;36.50;30.63;99523.38;5091522;28;20339;-67
2023/06/24 08:39:50;;;;;;;7.30;6.50;;;;;;;36.00;30.75;99526.28;5091755;28;20650;-66
2023/06/24 08:42:16;;;;;;;7.60;7.00;;;;;;;35.64;31.47;99521.13;5091646;28;20192;-67
2023/06/24 08:44:43;;;;;;;12.32;7.63;;;;;;;35.85;31.36;99522.41;5094119;28;20561;-67
2023/06/24 08:47:10;;;;;;;11.85;7.57;;;;;;;35.23;33.32;99516.16;5094779;28;20219;-67
2023/06/24 08:49:45;;;;;;;9.95;8.63;;;;;;;35.19;33.06;99509.75;5095303;28;20190;-67
2023/06/24 08:52:15;;;;;;;8.65;7.95;;;;;;;35.12;32.32;99504.06;5094862;28;20240;-67
2023/06/24 08:54:46;;;;;;;10.00;7.80;;;;;;;34.79;33.35;99511.84;5095254;28;20195;-67
2023/06/24 08:57:15;;;;;;;7.40;6.75;;;;;;;34.97;33.41;99513.13;5094765;28;20187;-68
2023/06/24 08:59:42;;;;;;;27.15;8.07;;;;;;;35.26;32.51;99509.91;5094756;28;20191;-67
2023/06/24 09:02:10;;;;;;;7.65;6.97;;;;;;;35.31;32.85;99517.97;5094496;28;20199;-68
2023/06/24 09:04:37;;;;;;;9.68;6.88;;;;;;;35.23;32.61;99516.16;5094622;28;20195;-68
2023/06/24 09:07:04;;;;;;;7.18;6.63;;;;;;;35.07;32.23;99513.41;5094709;28;20223;-68
2023/06/24 09:09:31;;;;;;;7.28;6.72;;;;;;;35.16;32.11;99516.81;5094521;28;20244;-68
2023/06/24 09:12:00;;;;;;;6.53;6.13;;;;;;;35.39;32.00;99509.47;5093300;28;20245;-67
2023/06/24 09:14:30;;;;;;;6.60;6.18;;;;;;;35.44;31.38;99511.19;5094187;28;20253;-69
2023/06/24 09:16:58;;;;;;;14.20;7.57;;;;;;;35.48;31.13;99503.78;5094525;28;20199;-68
2023/06/24 09:19:28;;;;;;;7.25;6.75;;;;;;;35.50;31.18;99509.72;5094333;28;20202;-67
2023/06/24 09:21:54;;;;;;;7.65;6.97;;;;;;;35.63;31.25;99498.19;5094132;28;20196;-67
2023/06/24 09:24:21;;;;;;;10.05;6.40;;;;;;;35.51;31.27;99505.78;5094086;28;20673;-65
2023/06/24 09:26:48;;;;;;;8.95;6.68;;;;;;;35.30;32.75;99488.72;5094115;28;20284;-73
2023/06/24 09:29:15;;;;;;;6.63;6.13;;;;;;;35.22;32.66;99492.44;5094427;28;20195;-70
2023/06/24 09:31:52;;;;;;;7.70;7.00;;;;;;;35.31;32.20;99485.59;5094514;28;20760;-70
2023/06/24 09:34:20;;;;;;;7.88;7.00;;;;;;;35.14;33.26;99490.66;5094099;28;20270;-69
2023/06/24 09:36:52;;;;;;;8.23;7.30;;;;;;;33.82;35.59;99477.56;5092894;28;20429;-69
2023/06/24 09:39:21;;;;;;;7.25;6.85;;;;;;;34.24;34.12;99473.25;5094285;28;20187;-70
2023/06/24 09:41:50;;;;;;;7.45;6.90;;;;;;;34.09;34.31;99465.78;5093823;28;20202;-70
2023/06/24 09:44:19;;;;;;;12.05;7.43;;;;;;;34.06;34.55;99466.47;5093763;28;20401;-68
2023/06/24 09:46:46;;;;;;;14.65;8.05;;;;;;;34.09;35.51;99457.50;5093492;28;20211;-69
2023/06/24 09:49:14;;;;;;;6.95;6.50;;;;;;;33.97;34.79;99449.28;5093748;28;20191;-69
2023/06/24 09:51:44;;;;;;;7.85;7.35;;;;;;;33.78;35.19;99449.06;5094011;28;20288;-70
2023/06/24 09:54:13;;;;;;;7.20;6.57;;;;;;;33.98;34.87;99432.38;5093188;28;20191;-64
2023/06/24 09:56:43;;;;;;;8.32;7.13;;;;;;;33.61;35.94;99438.34;5093630;28;20264;-66
2023/06/24 09:59:13;;;;;;;7.18;6.50;;;;;;;33.30;36.11;99428.75;5092680;28;20604;-65
2023/06/24 10:01:42;;;;;;;7.45;6.80;;;;;;;33.49;36.33;99422.66;5091637;28;20195;-65
2023/06/24 10:04:09;;;;;;;9.85;7.03;;;;;;;33.52;36.04;99423.91;5091232;28;20217;-70
2023/06/24 10:06:37;;;;;;;7.15;6.50;;;;;;;33.89;35.44;99419.91;5074212;28;20303;-71
2023/06/24 10:09:04;;;;;;;6.70;6.30;;;;;;;33.68;35.39;99422.03;5072568;28;20660;-68
2023/06/24 10:11:31;;;;;;;8.05;6.80;;;;;;;33.72;35.37;99420.16;5073372;28;20196;-68
2023/06/24 10:13:58;;;;;;;6.28;5.90;;;;;;;33.66;35.11;99419.59;5092413;28;20244;-68
2023/06/24 10:16:25;;;;;;;9.85;6.60;;;;;;;34.03;35.60;99412.00;5090526;28;20199;-70
2023/06/24 10:18:52;;;;;;;8.23;6.53;;;;;;;34.19;35.26;99410.09;5092005;28;20222;-68
2023/06/24 10:21:18;;;;;;;6.75;6.18;;;;;;;34.52;34.48;99407.84;5091322;28;20241;-69
2023/06/24 10:23:54;;;;;;;6.35;6.05;;;;;;;34.51;33.90;99409.81;5092424;28;20268;-70
2023/06/24 10:26:28;;;;;;;6.65;6.35;;;;;;;34.72;33.39;99412.28;5091630;28;20302;-70
2023/06/24 10:29:17;;;;;;;7.22;6.80;;;;;;;33.68;34.60;99411.00;5092652;28;20184;-69
2023/06/24 10:31:53;;;;;;;6.97;6.30;;;;;;;34.05;34.53;99398.69;5092600;28;20223;-69
2023/06/24 10:34:31;;;;;;;8.00;6.40;;;;;;;34.32;33.08;99395.91;5093185;28;20197;-69
2023/06/24 10:37:01;;;;;;;7.38;6.75;;;;;;;34.63;33.07;99404.22;5093253;28;20187;-69
2023/06/24 10:39:49;;;;;;;7.70;7.15;;;;;;;34.90;32.61;99402.53;5092869;28;20286;-69
2023/06/24 10:42:34;;;;;;;6.97;6.57;;;;;;;35.17;32.77;99396.03;5092792;28;20192;-69
2023/06/24 10:45:02;;;;;;;8.02;7.35;;;;;;;35.13;32.76;99389.63;5093352;28;20180;-71
2023/06/24 10:47:30;;;;;;;8.15;7.50;;;;;;;34.71;34.01;99392.19;5092946;28;20269;-69
2023/06/24 10:49:57;;;;;;;8.65;7.75;;;;;;;34.57;33.83;99391.03;5092559;28;20290;-69
2023/06/24 10:52:24;;;;;;;8.60;8.20;;;;;;;34.87;33.75;99386.66;5092520;28;20187;-69
2023/06/24 10:54:54;;;;;;;8.13;7.63;;;;;;;35.04;33.62;99372.47;5093006;28;20195;-69
2023/06/24 10:57:24;;;;;;;8.63;8.15;;;;;;;35.25;33.74;99375.69;5091432;28;20675;-69
2023/06/24 10:59:52;;;;;;;8.20;7.60;;;;;;;34.91;33.73;99373.75;5092449;28;20193;-68
2023/06/24 11:02:20;;;;;;;8.75;7.45;;;;;;;35.00;33.67;99358.59;5092366;28;20225;-68
2023/06/24 11:04:48;;;;;;;8.00;7.60;;;;;;;35.21;33.72;99352.72;5089828;28;20195;-68
2023/06/24 11:07:16;;;;;;;8.43;7.32;;;;;;;35.40;33.43;99347.25;5072131;28;20351;-69
2023/06/24 11:09:43;;;;;;;8.38;7.97;;;;;;;35.56;33.00;99347.97;5072128;28;20780;-67
2023/06/24 11:12:12;;;;;;;7.93;7.43;;;;;;;35.78;33.13;99344.50;5071979;28;20739;-68
2023/06/24 11:14:40;;;;;;;8.27;7.78;;;;;;;35.86;33.85;99346.22;5072605;28;20196;-68
2023/06/24 11:17:06;;;;;;;8.45;7.88;;;;;;;35.59;33.94;99331.47;5071808;28;20187;-68
2023/06/24 11:19:35;;;;;;;13.18;8.77;;;;;;;35.82;33.90;99320.47;5072176;28;20196;-68
2023/06/24 11:22:02;;;;;;;9.25;8.30;;;;;;;35.45;34.67;99319.31;5072008;28;20199;-68
2023/06/24 11:24:29;;;;;;;8.48;7.80;;;;;;;35.16;35.60;99306.06;5081084;28;20213;-68
2023/06/24 11:26:56;;;;;;;9.75;7.70;;;;;;;34.86;35.94;99308.53;5091947;28;20698;-68
2023/06/24 11:29:24;;;;;;;9.02;8.32;;;;;;;35.23;36.39;99298.69;5092139;28;20191;-68
2023/06/24 11:31:51;;;;;;;9.05;8.35;;;;;;;35.20;35.10;99302.22;5091683;28;20755;-68
2023/06/24 11:34:18;;;;;;;8.77;8.18;;;;;;;35.35;34.55;99300.56;5084988;28;20253;-68
2023/06/24 11:36:45;;;;;;;8.43;7.70;;;;;;;35.50;34.73;99296.91;5091840;28;20195;-68